sensor_id;sensor_type;location;lat;lon;timestamp;pressure;altitude;pressure_sealevel;temperature;humidity
50282;BME280;36176;51.506;10.272;2023-06-26T00:00:11;99399.19;;;17.88;89.40
50282;BME280;36176;51.506;10.272;2023-06-26T00:02:38;99398.47;;;17.85;89.55
50282;BME280;36176;51.506;10.272;2023-06-26T00:05:05;99404.91;;;17.83;89.41
50282;BME280;36176;51.506;10.272;2023-06-26T00:07:33;99399.03;;;17.78;89.28
50282;BME280;36176;51.506;10.272;2023-06-26T00:10:02;99403.81;;;17.74;89.87
50282;BME280;36176;51.506;10.272;2023-06-26T00:12:30;99401.47;;;17.70;90.19
50282;BME280;36176;51.506;10.272;2023-06-26T00:15:02;99397.06;;;17.69;89.85
50282;BME280;36176;51.506;10.272;2023-06-26T00:17:30;99399.75;;;17.69;89.93
50282;BME280;36176;51.506;10.272;2023-06-26T00:19:57;99390.88;;;17.68;89.77
50282;BME280;36176;51.506;10.272;2023-06-26T00:22:24;99395.59;;;17.64;90.08
50282;BME280;36176;51.506;10.272;2023-06-26T00:24:51;99392.91;;;17.64;90.04
50282;BME280;36176;51.506;10.272;2023-06-26T00:27:19;99398.41;;;17.63;89.77
50282;BME280;36176;51.506;10.272;2023-06-26T00:29:46;99393.31;;;17.60;90.51
50282;BME280;36176;51.506;10.272;2023-06-26T00:32:13;99395.00;;;17.61;90.57
50282;BME280;36176;51.506;10.272;2023-06-26T00:34:40;99396.47;;;17.65;90.84
50282;BME280;36176;51.506;10.272;2023-06-26T00:37:07;99390.38;;;17.63;91.32
50282;BME280;36176;51.506;10.272;2023-06-26T00:39:34;99392.31;;;17.61;91.31
50282;BME280;36176;51.506;10.272;2023-06-26T00:42:01;99395.44;;;17.55;91.78
50282;BME280;36176;51.506;10.272;2023-06-26T00:44:28;99391.81;;;17.56;91.82
50282;BME280;36176;51.506;10.272;2023-06-26T00:46:55;99391.56;;;17.59;92.24
50282;BME280;36176;51.506;10.272;2023-06-26T00:49:24;99394.00;;;17.62;91.44
50282;BME280;36176;51.506;10.272;2023-06-26T00:51:53;99393.06;;;17.63;91.76
50282;BME280;36176;51.506;10.272;2023-06-26T00:54:20;99383.28;;;17.62;91.94
50282;BME280;36176;51.506;10.272;2023-06-26T00:56:49;99382.44;;;17.61;92.20
50282;BME280;36176;51.506;10.272;2023-06-26T00:59:16;99385.00;;;17.63;91.94
50282;BME280;36176;51.506;10.272;2023-06-26T01:01:43;99382.44;;;17.61;92.46
50282;BME280;36176;51.506;10.272;2023-06-26T01:04:10;99382.19;;;17.64;92.09
50282;BME280;36176;51.506;10.272;2023-06-26T01:06:48;99378.91;;;17.61;92.15
50282;BME280;36176;51.506;10.272;2023-06-26T01:09:21;99374.16;;;17.64;92.37
50282;BME280;36176;51.506;10.272;2023-06-26T01:11:49;99376.34;;;17.59;92.31
50282;BME280;36176;51.506;10.272;2023-06-26T01:14:17;99379.28;;;17.56;92.34
50282;BME280;36176;51.506;10.272;2023-06-26T01:16:45;99374.28;;;17.52;92.53
50282;BME280;36176;51.506;10.272;2023-06-26T01:19:24;99374.53;;;17.49;93.01
50282;BME280;36176;51.506;10.272;2023-06-26T01:25:05;99363.91;;;17.36;93.28
50282;BME280;36176;51.506;10.272;2023-06-26T01:27:38;99356.69;;;17.25;93.42
50282;BME280;36176;51.506;10.272;2023-06-26T01:30:06;99353.50;;;17.20;93.58
50282;BME280;36176;51.506;10.272;2023-06-26T01:32:34;99360.81;;;17.18;92.92
50282;BME280;36176;51.506;10.272;2023-06-26T01:35:02;99357.13;;;17.08;94.07
50282;BME280;36176;51.506;10.272;2023-06-26T01:37:30;99360.16;;;17.03;94.52
50282;BME280;36176;51.506;10.272;2023-06-26T01:39:57;99352.47;;;16.98;94.40
50282;BME280;36176;51.506;10.272;2023-06-26T01:42:24;99364.38;;;16.94;94.79
50282;BME280;36176;51.506;10.272;2023-06-26T01:44:54;99358.41;;;16.91;94.58
50282;BME280;36176;51.506;10.272;2023-06-26T01:47:24;99360.34;;;16.89;95.34
50282;BME280;36176;51.506;10.272;2023-06-26T01:50:01;99352.66;;;16.84;95.75
50282;BME280;36176;51.506;10.272;2023-06-26T01:52:41;99352.88;;;16.81;95.25
50282;BME280;36176;51.506;10.272;2023-06-26T01:55:20;99345.94;;;16.78;96.40
50282;BME280;36176;51.506;10.272;2023-06-26T01:57:52;99336.41;;;16.74;96.40
50282;BME280;36176;51.506;10.272;2023-06-26T02:00:21;99336.84;;;16.68;96.32
50282;BME280;36176;51.506;10.272;2023-06-26T02:02:48;99341.59;;;16.65;97.01
50282;BME280;36176;51.506;10.272;2023-06-26T02:05:15;99339.00;;;16.63;96.52
50282;BME280;36176;51.506;10.272;2023-06-26T02:07:42;99338.16;;;16.63;96.50
50282;BME280;36176;51.506;10.272;2023-06-26T02:10:10;99343.75;;;16.59;96.54
50282;BME280;36176;51.506;10.272;2023-06-26T02:12:39;99333.25;;;16.56;97.02
50282;BME280;36176;51.506;10.272;2023-06-26T02:15:06;99332.75;;;16.51;96.31
50282;BME280;36176;51.506;10.272;2023-06-26T02:17:34;99337.50;;;16.48;96.57
50282;BME280;36176;51.506;10.272;2023-06-26T02:20:01;99327.88;;;16.45;96.54
50282;BME280;36176;51.506;10.272;2023-06-26T02:22:28;99331.72;;;16.41;96.62
50282;BME280;36176;51.506;10.272;2023-06-26T02:24:55;99327.56;;;16.37;97.44
50282;BME280;36176;51.506;10.272;2023-06-26T02:27:22;99331.97;;;16.38;97.31
50282;BME280;36176;51.506;10.272;2023-06-26T02:29:50;99334.84;;;16.35;97.17
50282;BME280;36176;51.506;10.272;2023-06-26T02:32:17;99324.63;;;16.29;97.43
50282;BME280;36176;51.506;10.272;2023-06-26T02:34:44;99327.53;;;16.26;97.58
50282;BME280;36176;51.506;10.272;2023-06-26T02:37:11;99325.06;;;16.23;97.50
50282;BME280;36176;51.506;10.272;2023-06-26T02:39:39;99320.78;;;16.20;97.60
50282;BME280;36176;51.506;10.272;2023-06-26T02:42:06;99320.91;;;16.19;97.53
50282;BME280;36176;51.506;10.272;2023-06-26T02:44:33;99320.28;;;16.15;97.44
50282;BME280;36176;51.506;10.272;2023-06-26T02:47:00;99320.84;;;16.07;98.08
50282;BME280;36176;51.506;10.272;2023-06-26T02:49:27;99315.91;;;16.01;98.62
50282;BME280;36176;51.506;10.272;2023-06-26T02:51:54;99307.72;;;15.91;99.94
50282;BME280;36176;51.506;10.272;2023-06-26T02:54:22;99312.84;;;15.82;99.74
50282;BME280;36176;51.506;10.272;2023-06-26T02:56:49;99314.78;;;15.80;99.90
50282;BME280;36176;51.506;10.272;2023-06-26T02:59:16;99313.41;;;15.74;100.00
50282;BME280;36176;51.506;10.272;2023-06-26T03:01:43;99312.75;;;15.70;100.00
50282;BME280;36176;51.506;10.272;2023-06-26T03:04:10;99312.75;;;15.70;100.00
50282;BME280;36176;51.506;10.272;2023-06-26T03:06:37;99305.78;;;15.68;100.00
50282;BME280;36176;51.506;10.272;2023-06-26T03:09:04;99311.13;;;15.68;100.00
50282;BME280;36176;51.506;10.272;2023-06-26T03:11:32;99306.75;;;15.67;100.00
50282;BME280;36176;51.506;10.272;2023-06-26T03:13:59;99314.47;;;15.71;100.00
50282;BME280;36176;51.506;10.272;2023-06-26T03:16:26;99304.84;;;15.69;100.00
50282;BME280;36176;51.506;10.272;2023-06-26T03:18:53;99312.94;;;15.67;100.00
50282;BME280;36176;51.506;10.272;2023-06-26T03:21:20;99321.72;;;15.69;100.00
50282;BME280;36176;51.506;10.272;2023-06-26T03:23:47;99318.00;;;15.72;100.00
50282;BME280;36176;51.506;10.272;2023-06-26T03:26:14;99321.53;;;15.72;100.00
50282;BME280;36176;51.506;10.272;2023-06-26T03:28:42;99315.22;;;15.73;100.00
50282;BME280;36176;51.506;10.272;2023-06-26T03:31:09;99312.56;;;15.73;100.00
50282;BME280;36176;51.506;10.272;2023-06-26T03:33:37;99308.91;;;15.74;100.00
50282;BME280;36176;51.506;10.272;2023-06-26T03:36:05;99307.09;;;15.75;100.00
50282;BME280;36176;51.506;10.272;2023-06-26T03:38:33;99306.25;;;15.74;100.00
50282;BME280;36176;51.506;10.272;2023-06-26T03:41:00;99307.84;;;15.77;100.00
50282;BME280;36176;51.506;10.272;2023-06-26T03:43:27;99301.41;;;15.80;100.00
50282;BME280;36176;51.506;10.272;2023-06-26T03:45:54;99298.66;;;15.81;100.00
50282;BME280;36176;51.506;10.272;2023-06-26T03:48:22;99295.88;;;15.83;100.00
50282;BME280;36176;51.506;10.272;2023-06-26T03:50:49;99299.28;;;15.85;100.00
50282;BME280;36176;51.506;10.272;2023-06-26T03:53:16;99299.16;;;15.86;100.00
50282;BME280;36176;51.506;10.272;2023-06-26T03:55:43;99292.66;;;15.90;100.00
50282;BME280;36176;51.506;10.272;2023-06-26T03:58:11;99297.88;;;15.92;100.00
50282;BME280;36176;51.506;10.272;2023-06-26T04:00:38;99297.66;;;15.95;100.00
50282;BME280;36176;51.506;10.272;2023-06-26T04:03:05;99294.53;;;16.01;100.00
50282;BME280;36176;51.506;10.272;2023-06-26T04:05:32;99299.44;;;16.07;100.00
50282;BME280;36176;51.506;10.272;2023-06-26T04:07:59;99292.78;;;16.13;100.00
50282;BME280;36176;51.506;10.272;2023-06-26T04:10:26;99296.44;;;16.12;100.00
50282;BME280;36176;51.506;10.272;2023-06-26T04:12:53;99287.69;;;16.10;100.00
50282;BME280;36176;51.506;10.272;2023-06-26T04:15:21;99291.50;;;16.19;100.00
50282;BME280;36176;51.506;10.272;2023-06-26T04:17:48;99290.19;;;16.24;100.00
50282;BME280;36176;51.506;10.272;2023-06-26T04:20:15;99283.34;;;16.33;100.00
50282;BME280;36176;51.506;10.272;2023-06-26T04:22:42;99282.63;;;16.42;100.00
50282;BME280;36176;51.506;10.272;2023-06-26T04:25:09;99290.72;;;16.53;99.71
50282;BME280;36176;51.506;10.272;2023-06-26T04:27:38;99281.75;;;16.66;99.44
50282;BME280;36176;51.506;10.272;2023-06-26T04:30:08;99291.88;;;16.73;99.49
50282;BME280;36176;51.506;10.272;2023-06-26T04:32:36;99289.19;;;16.86;99.28
50282;BME280;36176;51.506;10.272;2023-06-26T04:35:03;99284.22;;;16.93;98.83
50282;BME280;36176;51.506;10.272;2023-06-26T04:37:30;99285.22;;;17.03;98.10
50282;BME280;36176;51.506;10.272;2023-06-26T04:39:57;99290.69;;;17.13;97.99
50282;BME280;36176;51.506;10.272;2023-06-26T04:42:25;99283.19;;;17.29;98.39
50282;BME280;36176;51.506;10.272;2023-06-26T04:44:52;99292.44;;;17.48;97.24
50282;BME280;36176;51.506;10.272;2023-06-26T04:47:19;99290.75;;;17.69;96.71
50282;BME280;36176;51.506;10.272;2023-06-26T04:49:47;99293.09;;;17.96;96.54
50282;BME280;36176;51.506;10.272;2023-06-26T04:52:14;99282.78;;;18.35;96.54
50282;BME280;36176;51.506;10.272;2023-06-26T04:54:41;99283.22;;;18.84;94.68
50282;BME280;36176;51.506;10.272;2023-06-26T04:57:08;99280.06;;;19.42;92.35
50282;BME280;36176;51.506;10.272;2023-06-26T04:59:36;99285.59;;;20.02;89.80
50282;BME280;36176;51.506;10.272;2023-06-26T05:02:04;99283.72;;;20.72;86.96
50282;BME280;36176;51.506;10.272;2023-06-26T05:04:32;99287.03;;;21.52;84.25
50282;BME280;36176;51.506;10.272;2023-06-26T05:07:00;99281.75;;;22.25;79.74
50282;BME280;36176;51.506;10.272;2023-06-26T05:09:28;99278.69;;;22.91;76.83
50282;BME280;36176;51.506;10.272;2023-06-26T05:11:55;99270.22;;;23.56;74.03
50282;BME280;36176;51.506;10.272;2023-06-26T05:14:23;99270.16;;;24.09;72.22
50282;BME280;36176;51.506;10.272;2023-06-26T05:16:51;99276.53;;;24.58;68.98
50282;BME280;36176;51.506;10.272;2023-06-26T05:19:19;99269.13;;;25.01;66.24
50282;BME280;36176;51.506;10.272;2023-06-26T05:21:47;99261.63;;;25.44;64.53
50282;BME280;36176;51.506;10.272;2023-06-26T05:24:15;99263.53;;;25.83;62.33
50282;BME280;36176;51.506;10.272;2023-06-26T05:26:43;99262.09;;;26.12;61.22
50282;BME280;36176;51.506;10.272;2023-06-26T05:29:10;99262.75;;;26.54;60.68
50282;BME280;36176;51.506;10.272;2023-06-26T05:31:41;99260.66;;;27.02;60.21
50282;BME280;36176;51.506;10.272;2023-06-26T05:34:10;99254.19;;;27.41;57.92
50282;BME280;36176;51.506;10.272;2023-06-26T05:36:38;99255.06;;;27.71;57.18
50282;BME280;36176;51.506;10.272;2023-06-26T05:39:06;99253.91;;;28.10;56.01
50282;BME280;36176;51.506;10.272;2023-06-26T05:41:34;99250.47;;;28.37;54.89
50282;BME280;36176;51.506;10.272;2023-06-26T05:44:01;99246.50;;;28.55;53.10
50282;BME280;36176;51.506;10.272;2023-06-26T05:46:28;99248.75;;;28.73;54.83
50282;BME280;36176;51.506;10.272;2023-06-26T05:48:56;99246.66;;;28.96;54.50
50282;BME280;36176;51.506;10.272;2023-06-26T05:51:23;99245.03;;;29.02;50.09
50282;BME280;36176;51.506;10.272;2023-06-26T05:53:50;99242.59;;;29.35;52.26
50282;BME280;36176;51.506;10.272;2023-06-26T05:56:18;99237.06;;;29.57;48.26
50282;BME280;36176;51.506;10.272;2023-06-26T05:58:46;99236.09;;;29.71;50.87
50282;BME280;36176;51.506;10.272;2023-06-26T06:01:13;99238.00;;;30.19;48.93
50282;BME280;36176;51.506;10.272;2023-06-26T06:03:40;99231.78;;;30.38;48.70
50282;BME280;36176;51.506;10.272;2023-06-26T06:06:08;99232.66;;;30.52;47.16
50282;BME280;36176;51.506;10.272;2023-06-26T06:08:35;99233.50;;;30.59;46.16
50282;BME280;36176;51.506;10.272;2023-06-26T06:11:03;99226.22;;;30.18;45.79
50282;BME280;36176;51.506;10.272;2023-06-26T06:13:30;99223.78;;;30.30;49.80
50282;BME280;36176;51.506;10.272;2023-06-26T06:15:57;99223.22;;;30.68;48.20
50282;BME280;36176;51.506;10.272;2023-06-26T06:18:25;99228.50;;;31.03;47.11
50282;BME280;36176;51.506;10.272;2023-06-26T06:20:52;99227.22;;;31.38;45.78
50282;BME280;36176;51.506;10.272;2023-06-26T06:23:19;99222.94;;;31.76;43.82
50282;BME280;36176;51.506;10.272;2023-06-26T06:25:46;99224.63;;;31.77;40.30
50282;BME280;36176;51.506;10.272;2023-06-26T06:28:13;99224.47;;;31.58;40.59
50282;BME280;36176;51.506;10.272;2023-06-26T06:30:43;99230.19;;;31.30;40.32
50282;BME280;36176;51.506;10.272;2023-06-26T06:33:13;99228.09;;;31.19;42.29
50282;BME280;36176;51.506;10.272;2023-06-26T06:35:40;99218.41;;;31.16;45.02
50282;BME280;36176;51.506;10.272;2023-06-26T06:38:07;99217.81;;;31.01;42.42
50282;BME280;36176;51.506;10.272;2023-06-26T06:40:35;99227.47;;;31.04;42.31
50282;BME280;36176;51.506;10.272;2023-06-26T06:43:02;99225.59;;;31.11;43.78
50282;BME280;36176;51.506;10.272;2023-06-26T06:45:29;99217.53;;;31.29;41.95
50282;BME280;36176;51.506;10.272;2023-06-26T06:47:56;99216.75;;;31.09;42.85
50282;BME280;36176;51.506;10.272;2023-06-26T06:50:23;99216.69;;;30.62;43.34
50282;BME280;36176;51.506;10.272;2023-06-26T06:52:51;99210.53;;;30.27;42.79
50282;BME280;36176;51.506;10.272;2023-06-26T06:55:18;99215.53;;;29.68;44.06
50282;BME280;36176;51.506;10.272;2023-06-26T06:57:45;99206.75;;;29.45;44.92
50282;BME280;36176;51.506;10.272;2023-06-26T07:00:13;99208.44;;;29.46;46.09
50282;BME280;36176;51.506;10.272;2023-06-26T07:02:44;99198.22;;;29.20;43.11
50282;BME280;36176;51.506;10.272;2023-06-26T07:05:12;99203.13;;;29.31;44.56
50282;BME280;36176;51.506;10.272;2023-06-26T07:07:39;99200.00;;;29.69;44.94
50282;BME280;36176;51.506;10.272;2023-06-26T07:10:08;99199.88;;;29.97;45.32
50282;BME280;36176;51.506;10.272;2023-06-26T07:12:36;99188.50;;;30.68;43.46
50282;BME280;36176;51.506;10.272;2023-06-26T07:15:05;99191.41;;;31.53;39.89
50282;BME280;36176;51.506;10.272;2023-06-26T07:17:33;99190.84;;;32.35;42.51
50282;BME280;36176;51.506;10.272;2023-06-26T07:20:01;99185.72;;;33.27;38.76
50282;BME280;36176;51.506;10.272;2023-06-26T07:22:32;99190.22;;;33.21;35.39
50282;BME280;36176;51.506;10.272;2023-06-26T07:24:59;99198.50;;;32.90;37.16
50282;BME280;36176;51.506;10.272;2023-06-26T07:27:26;99190.91;;;33.17;37.45
50282;BME280;36176;51.506;10.272;2023-06-26T07:29:54;99192.34;;;33.19;36.75
50282;BME280;36176;51.506;10.272;2023-06-26T07:32:21;99199.25;;;32.78;35.88
50282;BME280;36176;51.506;10.272;2023-06-26T07:34:48;99193.50;;;32.16;36.46
50282;BME280;36176;51.506;10.272;2023-06-26T07:37:15;99194.97;;;31.61;38.73
50282;BME280;36176;51.506;10.272;2023-06-26T07:39:42;99199.25;;;31.23;38.82
50282;BME280;36176;51.506;10.272;2023-06-26T07:42:09;99192.28;;;31.47;41.69
50282;BME280;36176;51.506;10.272;2023-06-26T07:44:37;99199.16;;;32.21;39.29
50282;BME280;36176;51.506;10.272;2023-06-26T07:47:04;99194.53;;;32.86;37.96
50282;BME280;36176;51.506;10.272;2023-06-26T07:49:31;99188.72;;;33.44;38.62
50282;BME280;36176;51.506;10.272;2023-06-26T07:51:58;99201.03;;;33.60;36.34
50282;BME280;36176;51.506;10.272;2023-06-26T07:54:25;99193.16;;;33.82;35.66
50282;BME280;36176;51.506;10.272;2023-06-26T07:56:58;99186.22;;;34.28;34.45
50282;BME280;36176;51.506;10.272;2023-06-26T07:59:26;99177.66;;;34.78;36.28
50282;BME280;36176;51.506;10.272;2023-06-26T08:01:55;99173.81;;;34.67;35.01
50282;BME280;36176;51.506;10.272;2023-06-26T08:04:23;99177.44;;;35.03;33.24
50282;BME280;36176;51.506;10.272;2023-06-26T08:06:53;99174.13;;;35.25;35.09
50282;BME280;36176;51.506;10.272;2023-06-26T08:09:22;99170.00;;;34.92;35.09
50282;BME280;36176;51.506;10.272;2023-06-26T08:11:50;99170.50;;;35.12;34.81
50282;BME280;36176;51.506;10.272;2023-06-26T08:14:17;99161.28;;;35.42;31.47
50282;BME280;36176;51.506;10.272;2023-06-26T08:16:45;99165.34;;;35.63;33.36
50282;BME280;36176;51.506;10.272;2023-06-26T08:19:13;99174.59;;;36.26;32.75
50282;BME280;36176;51.506;10.272;2023-06-26T08:21:41;99171.84;;;36.72;30.94
50282;BME280;36176;51.506;10.272;2023-06-26T08:24:09;99168.50;;;36.70;29.84
50282;BME280;36176;51.506;10.272;2023-06-26T08:26:36;99173.75;;;36.88;27.83
50282;BME280;36176;51.506;10.272;2023-06-26T08:29:04;99168.31;;;36.59;29.18
50282;BME280;36176;51.506;10.272;2023-06-26T08:31:39;99161.50;;;36.50;30.44
50282;BME280;36176;51.506;10.272;2023-06-26T08:34:07;99172.00;;;36.65;29.51
50282;BME280;36176;51.506;10.272;2023-06-26T08:36:35;99169.84;;;36.67;30.04
50282;BME280;36176;51.506;10.272;2023-06-26T08:39:02;99164.22;;;36.62;30.75
50282;BME280;36176;51.506;10.272;2023-06-26T08:41:30;99166.53;;;37.04;27.86
50282;BME280;36176;51.506;10.272;2023-06-26T08:43:57;99167.63;;;37.20;29.92
50282;BME280;36176;51.506;10.272;2023-06-26T08:46:25;99167.72;;;36.91;28.73
50282;BME280;36176;51.506;10.272;2023-06-26T08:49:00;99172.38;;;36.57;28.41
50282;BME280;36176;51.506;10.272;2023-06-26T08:51:30;99167.97;;;35.98;30.42
50282;BME280;36176;51.506;10.272;2023-06-26T08:54:00;99167.22;;;35.51;31.71
50282;BME280;36176;51.506;10.272;2023-06-26T08:56:32;99163.44;;;35.40;29.39
50282;BME280;36176;51.506;10.272;2023-06-26T08:59:00;99173.34;;;35.65;30.25
50282;BME280;36176;51.506;10.272;2023-06-26T09:01:27;99174.16;;;36.06;29.03
50282;BME280;36176;51.506;10.272;2023-06-26T09:03:55;99171.84;;;35.86;29.22
50282;BME280;36176;51.506;10.272;2023-06-26T09:06:22;99171.47;;;35.42;29.52
50282;BME280;36176;51.506;10.272;2023-06-26T09:08:49;99175.41;;;35.34;31.01
50282;BME280;36176;51.506;10.272;2023-06-26T09:11:16;99173.38;;;35.29;31.27
50282;BME280;36176;51.506;10.272;2023-06-26T09:13:44;99168.19;;;34.74;31.01
50282;BME280;36176;51.506;10.272;2023-06-26T09:16:14;99167.25;;;34.38;32.59
50282;BME280;36176;51.506;10.272;2023-06-26T09:18:42;99166.84;;;34.04;32.02
50282;BME280;36176;51.506;10.272;2023-06-26T09:21:09;99167.22;;;33.78;34.23
50282;BME280;36176;51.506;10.272;2023-06-26T09:23:40;99168.81;;;33.85;33.52
50282;BME280;36176;51.506;10.272;2023-06-26T09:26:09;99162.84;;;34.49;32.32
50282;BME280;36176;51.506;10.272;2023-06-26T09:28:38;99154.56;;;35.03;34.01
50282;BME280;36176;51.506;10.272;2023-06-26T09:31:07;99150.16;;;35.37;35.44
50282;BME280;36176;51.506;10.272;2023-06-26T09:33:36;99141.25;;;35.58;33.35
50282;BME280;36176;51.506;10.272;2023-06-26T09:36:08;99140.19;;;35.48;35.18
50282;BME280;36176;51.506;10.272;2023-06-26T09:38:38;99133.63;;;35.37;33.30
50282;BME280;36176;51.506;10.272;2023-06-26T09:41:05;99126.28;;;35.54;32.40
50282;BME280;36176;51.506;10.272;2023-06-26T09:43:32;99120.53;;;35.56;31.50
50282;BME280;36176;51.506;10.272;2023-06-26T09:46:00;99113.38;;;35.31;32.46
50282;BME280;36176;51.506;10.272;2023-06-26T09:48:28;99112.63;;;35.48;33.51
50282;BME280;36176;51.506;10.272;2023-06-26T09:50:56;99121.09;;;35.58;33.21
50282;BME280;36176;51.506;10.272;2023-06-26T09:53:41;99122.25;;;35.86;35.10
50282;BME280;36176;51.506;10.272;2023-06-26T09:56:16;99132.09;;;36.10;29.73
50282;BME280;36176;51.506;10.272;2023-06-26T09:58:49;99137.84;;;36.09;31.23
50282;BME280;36176;51.506;10.272;2023-06-26T10:01:17;99136.06;;;36.03;31.11
50282;BME280;36176;51.506;10.272;2023-06-26T10:03:45;99147.59;;;35.47;31.21
50282;BME280;36176;51.506;10.272;2023-06-26T10:06:33;99149.31;;;34.89;34.69
50282;BME280;36176;51.506;10.272;2023-06-26T10:09:03;99143.81;;;34.89;34.10
50282;BME280;36176;51.506;10.272;2023-06-26T10:14:25;99133.19;;;34.39;34.91
50282;BME280;36176;51.506;10.272;2023-06-26T10:16:57;99122.34;;;34.56;34.54
50282;BME280;36176;51.506;10.272;2023-06-26T10:19:28;99117.47;;;34.70;32.62
50282;BME280;36176;51.506;10.272;2023-06-26T10:21:57;99125.63;;;34.35;32.01
50282;BME280;36176;51.506;10.272;2023-06-26T10:24:28;99115.75;;;33.85;33.15
50282;BME280;36176;51.506;10.272;2023-06-26T10:27:02;99119.69;;;33.59;33.96
50282;BME280;36176;51.506;10.272;2023-06-26T10:29:31;99114.75;;;33.98;33.77
50282;BME280;36176;51.506;10.272;2023-06-26T10:32:00;99118.13;;;34.42;32.96
50282;BME280;36176;51.506;10.272;2023-06-26T10:34:31;99126.09;;;34.85;31.72
50282;BME280;36176;51.506;10.272;2023-06-26T10:37:03;99118.53;;;35.04;32.31
50282;BME280;36176;51.506;10.272;2023-06-26T10:39:45;99124.56;;;35.25;33.53
50282;BME280;36176;51.506;10.272;2023-06-26T10:42:18;99124.66;;;35.30;30.82
50282;BME280;36176;51.506;10.272;2023-06-26T10:44:48;99130.63;;;35.27;32.02
50282;BME280;36176;51.506;10.272;2023-06-26T10:47:32;99123.25;;;35.15;32.45
50282;BME280;36176;51.506;10.272;2023-06-26T10:55:37;99124.25;;;35.62;31.16
50282;BME280;36176;51.506;10.272;2023-06-26T11:01:14;99135.19;;;35.33;32.17
50282;BME280;36176;51.506;10.272;2023-06-26T11:03:44;99136.97;;;35.04;31.79
50282;BME280;36176;51.506;10.272;2023-06-26T11:06:14;99136.50;;;34.95;32.94
50282;BME280;36176;51.506;10.272;2023-06-26T11:11:16;99132.78;;;34.66;34.25
50282;BME280;36176;51.506;10.272;2023-06-26T11:13:45;99139.38;;;34.04;35.47
50282;BME280;36176;51.506;10.272;2023-06-26T11:16:13;99150.16;;;33.14;36.40
50282;BME280;36176;51.506;10.272;2023-06-26T11:18:42;99168.50;;;32.06;39.01
50282;BME280;36176;51.506;10.272;2023-06-26T11:21:12;99186.84;;;31.01;40.74
50282;BME280;36176;51.506;10.272;2023-06-26T11:23:45;99178.72;;;30.13;42.34
50282;BME280;36176;51.506;10.272;2023-06-26T11:26:18;99184.53;;;29.48;45.11
50282;BME280;36176;51.506;10.272;2023-06-26T11:28:56;99188.47;;;29.11;45.50
50282;BME280;36176;51.506;10.272;2023-06-26T11:31:31;99209.03;;;28.63;45.23
50282;BME280;36176;51.506;10.272;2023-06-26T11:34:01;99212.56;;;28.21;46.53
50282;BME280;36176;51.506;10.272;2023-06-26T11:36:30;99226.91;;;27.93;46.64
50282;BME280;36176;51.506;10.272;2023-06-26T11:39:00;99240.81;;;27.54;47.54
50282;BME280;36176;51.506;10.272;2023-06-26T11:41:31;99258.16;;;27.15;49.25
50282;BME280;36176;51.506;10.272;2023-06-26T11:44:07;99285.66;;;26.51;51.65
50282;BME280;36176;51.506;10.272;2023-06-26T11:46:35;99295.94;;;25.85;55.80
50282;BME280;36176;51.506;10.272;2023-06-26T11:49:03;99312.50;;;25.10;61.00
50282;BME280;36176;51.506;10.272;2023-06-26T11:51:34;99316.03;;;24.18;65.90
50282;BME280;36176;51.506;10.272;2023-06-26T11:54:14;99325.13;;;23.49;69.55
50282;BME280;36176;51.506;10.272;2023-06-26T11:56:41;99328.00;;;22.93;71.38
50282;BME280;36176;51.506;10.272;2023-06-26T12:00:13;99338.25;;;22.54;74.78
50282;BME280;36176;51.506;10.272;2023-06-26T12:02:47;99348.28;;;22.44;76.96
50282;BME280;36176;51.506;10.272;2023-06-26T12:05:16;99335.22;;;22.39;76.94
50282;BME280;36176;51.506;10.272;2023-06-26T12:07:46;99326.19;;;22.30;78.61
50282;BME280;36176;51.506;10.272;2023-06-26T12:10:15;99338.81;;;22.30;78.16
50282;BME280;36176;51.506;10.272;2023-06-26T12:12:44;99338.50;;;22.33;79.97
50282;BME280;36176;51.506;10.272;2023-06-26T12:15:15;99341.47;;;22.40;81.77
50282;BME280;36176;51.506;10.272;2023-06-26T12:17:42;99342.50;;;22.57;81.85
50282;BME280;36176;51.506;10.272;2023-06-26T12:20:21;99328.16;;;22.74;83.48
50282;BME280;36176;51.506;10.272;2023-06-26T12:22:48;99327.78;;;22.87;82.87
50282;BME280;36176;51.506;10.272;2023-06-26T12:25:22;99326.72;;;23.16;82.16
50282;BME280;36176;51.506;10.272;2023-06-26T12:27:49;99334.00;;;23.41;78.78
50282;BME280;36176;51.506;10.272;2023-06-26T12:30:17;99329.53;;;23.58;79.73
50282;BME280;36176;51.506;10.272;2023-06-26T12:32:45;99330.44;;;23.41;77.01
50282;BME280;36176;51.506;10.272;2023-06-26T12:35:14;99334.22;;;23.48;78.17
50282;BME280;36176;51.506;10.272;2023-06-26T12:37:43;99337.03;;;23.64;78.82
50282;BME280;36176;51.506;10.272;2023-06-26T12:40:17;99343.56;;;23.80;79.02
50282;BME280;36176;51.506;10.272;2023-06-26T12:42:46;99334.84;;;23.94;78.33
50282;BME280;36176;51.506;10.272;2023-06-26T12:45:14;99332.34;;;24.01;77.90
50282;BME280;36176;51.506;10.272;2023-06-26T12:48:12;99330.19;;;24.12;75.53
50282;BME280;36176;51.506;10.272;2023-06-26T12:50:45;99325.44;;;24.06;77.92
50282;BME280;36176;51.506;10.272;2023-06-26T12:53:12;99327.16;;;24.07;78.19
50282;BME280;36176;51.506;10.272;2023-06-26T12:55:41;99330.06;;;24.14;76.38
50282;BME280;36176;51.506;10.272;2023-06-26T12:58:08;99320.13;;;24.31;76.36
50282;BME280;36176;51.506;10.272;2023-06-26T13:00:37;99327.69;;;24.78;77.73
50282;BME280;36176;51.506;10.272;2023-06-26T13:03:05;99326.91;;;25.18;72.67
50282;BME280;36176;51.506;10.272;2023-06-26T13:05:35;99323.84;;;25.46;72.94
50282;BME280;36176;51.506;10.272;2023-06-26T13:08:03;99311.38;;;25.93;70.86
50282;BME280;36176;51.506;10.272;2023-06-26T13:10:30;99315.47;;;26.28;71.87
50282;BME280;36176;51.506;10.272;2023-06-26T13:12:57;99309.47;;;26.41;68.61